sensor_id;sensor_type;location;lat;lon;timestamp;pressure;altitude;pressure_sealevel;temperature;humidity
21109;BME280;10712;52.944;9.098;2023-06-22T00:02:17;101846.34;;;25.99;52.42
21109;BME280;10712;52.944;9.098;2023-06-22T00:04:43;101841.19;;;25.96;52.34
21109;BME280;10712;52.944;9.098;2023-06-22T00:07:09;101840.47;;;25.85;52.58
21109;BME280;10712;52.944;9.098;2023-06-22T00:09:35;101829.34;;;25.79;52.84
21109;BME280;10712;52.944;9.098;2023-06-22T00:12:02;101843.81;;;25.79;52.86
21109;BME280;10712;52.944;9.098;2023-06-22T00:14:28;101841.44;;;25.76;53.13
21109;BME280;10712;52.944;9.098;2023-06-22T00:16:53;101838.88;;;25.75;53.05
21109;BME280;10712;52.944;9.098;2023-06-22T00:19:23;101839.41;;;25.78;53.05
21109;BME280;10712;52.944;9.098;2023-06-22T00:21:52;101840.72;;;25.74;53.08
21109;BME280;10712;52.944;9.098;2023-06-22T00:24:19;101849.94;;;25.73;53.30
21109;BME280;10712;52.944;9.098;2023-06-22T00:26:45;101840.38;;;25.69;53.39
21109;BME280;10712;52.944;9.098;2023-06-22T00:29:12;101836.94;;;25.67;53.27
21109;BME280;10712;52.944;9.098;2023-06-22T00:31:38;101830.47;;;25.68;53.40
21109;BME280;10712;52.944;9.098;2023-06-22T00:34:03;101844.13;;;25.68;53.49
21109;BME280;10712;52.944;9.098;2023-06-22T00:36:33;101842.41;;;25.67;53.48
21109;BME280;10712;52.944;9.098;2023-06-22T00:38:59;101839.81;;;25.66;53.45
21109;BME280;10712;52.944;9.098;2023-06-22T00:41:24;101846.13;;;25.66;53.67
21109;BME280;10712;52.944;9.098;2023-06-22T00:43:54;101851.81;;;25.73;53.59
21109;BME280;10712;52.944;9.098;2023-06-22T00:46:21;101846.56;;;25.79;53.40
21109;BME280;10712;52.944;9.098;2023-06-22T00:48:50;101850.69;;;25.83;53.40
21109;BME280;10712;52.944;9.098;2023-06-22T00:51:17;101844.22;;;25.84;53.59
21109;BME280;10712;52.944;9.098;2023-06-22T00:53:44;101846.94;;;25.84;53.27
21109;BME280;10712;52.944;9.098;2023-06-22T00:56:11;101842.13;;;25.78;53.24
21109;BME280;10712;52.944;9.098;2023-06-22T00:58:38;101844.66;;;25.72;53.13
21109;BME280;10712;52.944;9.098;2023-06-22T01:01:07;101844.44;;;25.65;53.28
21109;BME280;10712;52.944;9.098;2023-06-22T01:03:33;101840.47;;;25.60;53.49
21109;BME280;10712;52.944;9.098;2023-06-22T01:06:08;101843.38;;;25.58;53.35
21109;BME280;10712;52.944;9.098;2023-06-22T01:08:49;101842.28;;;25.51;53.35
21109;BME280;10712;52.944;9.098;2023-06-22T01:11:45;101843.88;;;25.36;53.64
21109;BME280;10712;52.944;9.098;2023-06-22T01:14:21;101839.78;;;25.40;53.73
21109;BME280;10712;52.944;9.098;2023-06-22T01:16:52;101842.88;;;25.45;53.99
21109;BME280;10712;52.944;9.098;2023-06-22T01:19:46;101832.31;;;25.42;54.05
21109;BME280;10712;52.944;9.098;2023-06-22T01:22:21;101831.28;;;25.43;53.93
21109;BME280;10712;52.944;9.098;2023-06-22T01:25:11;101827.16;;;25.39;53.81
21109;BME280;10712;52.944;9.098;2023-06-22T01:28:02;101828.13;;;25.30;53.61
21109;BME280;10712;52.944;9.098;2023-06-22T01:30:31;101830.69;;;25.31;53.86
21109;BME280;10712;52.944;9.098;2023-06-22T01:33:03;101829.50;;;25.34;53.85
21109;BME280;10712;52.944;9.098;2023-06-22T01:35:31;101834.97;;;25.34;53.65
21109;BME280;10712;52.944;9.098;2023-06-22T01:38:00;101824.06;;;25.34;53.52
21109;BME280;10712;52.944;9.098;2023-06-22T01:40:26;101819.47;;;25.34;53.53
21109;BME280;10712;52.944;9.098;2023-06-22T01:42:53;101811.44;;;25.33;53.42
21109;BME280;10712;52.944;9.098;2023-06-22T01:45:19;101814.78;;;25.27;53.44
21109;BME280;10712;52.944;9.098;2023-06-22T01:47:46;101805.88;;;25.17;53.32
21109;BME280;10712;52.944;9.098;2023-06-22T01:50:13;101805.31;;;25.13;53.32
21109;BME280;10712;52.944;9.098;2023-06-22T01:52:38;101800.50;;;25.07;53.52
21109;BME280;10712;52.944;9.098;2023-06-22T01:55:04;101807.97;;;25.05;53.41
21109;BME280;10712;52.944;9.098;2023-06-22T01:57:32;101816.72;;;25.08;53.66
21109;BME280;10712;52.944;9.098;2023-06-22T02:00:10;101815.69;;;25.09;53.68
21109;BME280;10712;52.944;9.098;2023-06-22T02:03:00;101821.16;;;25.09;53.53
21109;BME280;10712;52.944;9.098;2023-06-22T02:05:53;101819.44;;;25.08;53.41
21109;BME280;10712;52.944;9.098;2023-06-22T02:08:40;101822.84;;;25.10;53.47
21109;BME280;10712;52.944;9.098;2023-06-22T02:11:09;101816.06;;;25.15;53.51
21109;BME280;10712;52.944;9.098;2023-06-22T02:13:38;101820.53;;;25.16;53.36
21109;BME280;10712;52.944;9.098;2023-06-22T02:16:11;101825.56;;;25.10;53.13
21109;BME280;10712;52.944;9.098;2023-06-22T02:18:47;101821.75;;;25.03;53.28
21109;BME280;10712;52.944;9.098;2023-06-22T02:21:13;101823.66;;;25.03;53.27
21109;BME280;10712;52.944;9.098;2023-06-22T02:23:39;101821.75;;;25.03;53.18
21109;BME280;10712;52.944;9.098;2023-06-22T02:26:05;101825.53;;;25.02;53.21
21109;BME280;10712;52.944;9.098;2023-06-22T02:28:31;101820.38;;;24.99;53.17
21109;BME280;10712;52.944;9.098;2023-06-22T02:30:56;101824.97;;;24.99;53.15
21109;BME280;10712;52.944;9.098;2023-06-22T02:33:22;101825.81;;;24.99;53.41
21109;BME280;10712;52.944;9.098;2023-06-22T02:35:48;101822.09;;;25.00;53.14
21109;BME280;10712;52.944;9.098;2023-06-22T02:38:15;101823.81;;;25.01;53.23
21109;BME280;10712;52.944;9.098;2023-06-22T02:40:41;101825.81;;;24.99;53.27
21109;BME280;10712;52.944;9.098;2023-06-22T02:43:06;101822.38;;;24.97;53.21
21109;BME280;10712;52.944;9.098;2023-06-22T02:45:32;101816.69;;;24.91;53.39
21109;BME280;10712;52.944;9.098;2023-06-22T02:47:58;101822.16;;;24.91;53.22
21109;BME280;10712;52.944;9.098;2023-06-22T02:50:24;101818.41;;;24.92;53.31
21109;BME280;10712;52.944;9.098;2023-06-22T02:52:51;101826.59;;;24.92;53.41
21109;BME280;10712;52.944;9.098;2023-06-22T02:55:17;101825.75;;;24.91;53.35
21109;BME280;10712;52.944;9.098;2023-06-22T02:57:50;101816.13;;;24.87;53.34
21109;BME280;10712;52.944;9.098;2023-06-22T03:00:19;101824.16;;;24.89;53.18
21109;BME280;10712;52.944;9.098;2023-06-22T03:02:48;101819.88;;;24.86;53.26
21109;BME280;10712;52.944;9.098;2023-06-22T03:05:15;101821.22;;;24.82;53.30
21109;BME280;10712;52.944;9.098;2023-06-22T03:07:45;101823.94;;;24.82;53.41
21109;BME280;10712;52.944;9.098;2023-06-22T03:10:13;101827.97;;;24.78;53.27
21109;BME280;10712;52.944;9.098;2023-06-22T03:12:41;101828.22;;;24.67;53.32
21109;BME280;10712;52.944;9.098;2023-06-22T03:15:12;101834.44;;;24.59;53.33
21109;BME280;10712;52.944;9.098;2023-06-22T03:17:40;101830.13;;;24.57;53.49
21109;BME280;10712;52.944;9.098;2023-06-22T03:20:09;101834.56;;;24.58;53.58
21109;BME280;10712;52.944;9.098;2023-06-22T03:22:40;101832.13;;;24.55;53.81
21109;BME280;10712;52.944;9.098;2023-06-22T03:25:10;101835.09;;;24.44;53.75
21109;BME280;10712;52.944;9.098;2023-06-22T03:27:37;101832.28;;;24.36;54.00
21109;BME280;10712;52.944;9.098;2023-06-22T03:30:04;101839.19;;;24.30;54.21
21109;BME280;10712;52.944;9.098;2023-06-22T03:32:31;101830.88;;;24.31;54.29
21109;BME280;10712;52.944;9.098;2023-06-22T03:34:58;101833.84;;;24.38;54.60
21109;BME280;10712;52.944;9.098;2023-06-22T03:37:26;101844.28;;;24.43;54.61
21109;BME280;10712;52.944;9.098;2023-06-22T03:39:52;101834.09;;;24.45;54.71
21109;BME280;10712;52.944;9.098;2023-06-22T03:42:19;101836.81;;;24.45;54.72
21109;BME280;10712;52.944;9.098;2023-06-22T03:44:45;101842.72;;;24.40;54.80
21109;BME280;10712;52.944;9.098;2023-06-22T03:47:12;101841.16;;;24.38;54.63
21109;BME280;10712;52.944;9.098;2023-06-22T03:49:38;101852.34;;;24.34;55.17
21109;BME280;10712;52.944;9.098;2023-06-22T03:52:05;101848.63;;;24.36;54.94
21109;BME280;10712;52.944;9.098;2023-06-22T03:54:31;101849.19;;;24.39;55.33
21109;BME280;10712;52.944;9.098;2023-06-22T03:56:58;101856.88;;;24.44;55.38
21109;BME280;10712;52.944;9.098;2023-06-22T03:59:24;101854.47;;;24.41;55.12
21109;BME280;10712;52.944;9.098;2023-06-22T04:01:50;101857.50;;;24.38;55.00
21109;BME280;10712;52.944;9.098;2023-06-22T04:04:19;101855.50;;;24.40;55.25
21109;BME280;10712;52.944;9.098;2023-06-22T04:06:45;101853.16;;;24.45;55.28
21109;BME280;10712;52.944;9.098;2023-06-22T04:09:12;101859.00;;;24.50;55.54
21109;BME280;10712;52.944;9.098;2023-06-22T04:11:37;101855.97;;;24.53;55.32
21109;BME280;10712;52.944;9.098;2023-06-22T04:14:03;101868.28;;;24.57;55.53
21109;BME280;10712;52.944;9.098;2023-06-22T04:16:29;101871.41;;;24.62;55.45
21109;BME280;10712;52.944;9.098;2023-06-22T04:18:55;101863.94;;;24.64;55.41
21109;BME280;10712;52.944;9.098;2023-06-22T04:21:20;101861.59;;;24.69;55.43
21109;BME280;10712;52.944;9.098;2023-06-22T04:23:47;101860.28;;;24.73;55.49
21109;BME280;10712;52.944;9.098;2023-06-22T04:26:13;101855.22;;;24.78;55.38
21109;BME280;10712;52.944;9.098;2023-06-22T04:28:42;101850.16;;;24.83;55.70
21109;BME280;10712;52.944;9.098;2023-06-22T04:31:07;101855.47;;;24.85;55.46
21109;BME280;10712;52.944;9.098;2023-06-22T04:33:33;101852.59;;;24.86;55.46
21109;BME280;10712;52.944;9.098;2023-06-22T04:35:59;101852.44;;;24.88;55.71
21109;BME280;10712;52.944;9.098;2023-06-22T04:38:29;101858.75;;;24.88;55.83
21109;BME280;10712;52.944;9.098;2023-06-22T04:40:58;101857.75;;;24.89;55.92
21109;BME280;10712;52.944;9.098;2023-06-22T04:43:26;101859.47;;;24.90;55.96
21109;BME280;10712;52.944;9.098;2023-06-22T04:45:56;101852.00;;;24.92;55.91
21109;BME280;10712;52.944;9.098;2023-06-22T04:48:29;101855.44;;;24.94;55.92
21109;BME280;10712;52.944;9.098;2023-06-22T04:51:02;101851.69;;;24.95;56.00
21109;BME280;10712;52.944;9.098;2023-06-22T04:53:31;101848.63;;;24.98;55.82
21109;BME280;10712;52.944;9.098;2023-06-22T04:55:57;101849.34;;;25.00;55.93
21109;BME280;10712;52.944;9.098;2023-06-22T04:58:23;101851.06;;;25.01;56.08
21109;BME280;10712;52.944;9.098;2023-06-22T05:00:52;101849.03;;;25.03;56.18
21109;BME280;10712;52.944;9.098;2023-06-22T05:03:18;101853.88;;;25.09;56.02
21109;BME280;10712;52.944;9.098;2023-06-22T05:05:44;101851.81;;;25.11;56.28
21109;BME280;10712;52.944;9.098;2023-06-22T05:08:10;101848.78;;;25.15;56.30
21109;BME280;10712;52.944;9.098;2023-06-22T05:10:35;101852.91;;;25.19;56.49
21109;BME280;10712;52.944;9.098;2023-06-22T05:13:01;101846.28;;;25.21;56.44
21109;BME280;10712;52.944;9.098;2023-06-22T05:15:27;101833.88;;;25.27;56.29
21109;BME280;10712;52.944;9.098;2023-06-22T05:17:56;101843.63;;;25.29;56.53
21109;BME280;10712;52.944;9.098;2023-06-22T05:20:21;101838.72;;;25.33;56.35
21109;BME280;10712;52.944;9.098;2023-06-22T05:22:48;101840.44;;;25.34;56.49
21109;BME280;10712;52.944;9.098;2023-06-22T05:25:13;101841.19;;;25.44;56.34
21109;BME280;10712;52.944;9.098;2023-06-22T05:27:39;101840.22;;;25.53;55.93
21109;BME280;10712;52.944;9.098;2023-06-22T05:30:07;101842.53;;;25.58;55.98
21109;BME280;10712;52.944;9.098;2023-06-22T05:32:33;101836.06;;;25.67;55.75
21109;BME280;10712;52.944;9.098;2023-06-22T05:34:59;101833.94;;;25.78;55.66
21109;BME280;10712;52.944;9.098;2023-06-22T05:37:25;101840.78;;;25.82;55.60
21109;BME280;10712;52.944;9.098;2023-06-22T05:39:51;101836.59;;;25.96;55.77
21109;BME280;10712;52.944;9.098;2023-06-22T05:42:17;101839.03;;;26.07;55.66
21109;BME280;10712;52.944;9.098;2023-06-22T05:44:43;101837.19;;;26.16;55.58
21109;BME280;10712;52.944;9.098;2023-06-22T05:47:09;101838.13;;;26.24;55.38
21109;BME280;10712;52.944;9.098;2023-06-22T05:49:35;101837.47;;;26.31;55.36
21109;BME280;10712;52.944;9.098;2023-06-22T05:52:00;101831.16;;;26.38;55.12
21109;BME280;10712;52.944;9.098;2023-06-22T05:54:29;101827.78;;;26.44;54.74
21109;BME280;10712;52.944;9.098;2023-06-22T05:56:55;101833.25;;;26.52;54.37
21109;BME280;10712;52.944;9.098;2023-06-22T05:59:21;101834.31;;;26.59;54.22
21109;BME280;10712;52.944;9.098;2023-06-22T06:01:47;101824.06;;;26.70;53.90
21109;BME280;10712;52.944;9.098;2023-06-22T06:04:18;101823.75;;;26.73;53.86
21109;BME280;10712;52.944;9.098;2023-06-22T06:06:45;101826.50;;;26.81;53.79
21109;BME280;10712;52.944;9.098;2023-06-22T06:09:14;101829.25;;;26.89;53.48
21109;BME280;10712;52.944;9.098;2023-06-22T06:11:40;101827.38;;;26.97;53.50
21109;BME280;10712;52.944;9.098;2023-06-22T06:14:05;101828.25;;;27.06;53.12
21109;BME280;10712;52.944;9.098;2023-06-22T06:16:32;101826.22;;;27.16;53.18
21109;BME280;10712;52.944;9.098;2023-06-22T06:18:57;101837.81;;;27.26;52.89
21109;BME280;10712;52.944;9.098;2023-06-22T06:21:24;101821.22;;;27.36;52.77
21109;BME280;10712;52.944;9.098;2023-06-22T06:23:50;101823.09;;;27.52;52.12
21109;BME280;10712;52.944;9.098;2023-06-22T06:26:15;101819.00;;;27.56;52.35
21109;BME280;10712;52.944;9.098;2023-06-22T06:28:54;101814.88;;;27.68;52.23
21109;BME280;10712;52.944;9.098;2023-06-22T06:31:20;101815.84;;;27.83;51.80
21109;BME280;10712;52.944;9.098;2023-06-22T06:33:46;101815.31;;;27.88;51.95
21109;BME280;10712;52.944;9.098;2023-06-22T06:36:12;101813.91;;;28.00;51.81
21109;BME280;10712;52.944;9.098;2023-06-22T06:38:38;101817.47;;;28.08;51.00
21109;BME280;10712;52.944;9.098;2023-06-22T06:41:03;101820.88;;;28.10;50.68
21109;BME280;10712;52.944;9.098;2023-06-22T06:43:29;101814.00;;;28.23;50.57
21109;BME280;10712;52.944;9.098;2023-06-22T06:45:55;101822.06;;;28.24;50.22
21109;BME280;10712;52.944;9.098;2023-06-22T06:48:20;101813.66;;;28.26;50.03
21109;BME280;10712;52.944;9.098;2023-06-22T06:50:46;101818.41;;;28.32;49.81
21109;BME280;10712;52.944;9.098;2023-06-22T06:53:12;101822.84;;;28.41;49.41
21109;BME280;10712;52.944;9.098;2023-06-22T06:55:38;101813.72;;;28.48;49.21
21109;BME280;10712;52.944;9.098;2023-06-22T06:58:04;101817.22;;;28.57;48.59
21109;BME280;10712;52.944;9.098;2023-06-22T07:00:33;101813.13;;;28.61;48.77
21109;BME280;10712;52.944;9.098;2023-06-22T07:03:01;101813.59;;;28.65;48.68
21109;BME280;10712;52.944;9.098;2023-06-22T07:05:27;101816.66;;;28.70;48.71
21109;BME280;10712;52.944;9.098;2023-06-22T07:07:53;101817.13;;;28.81;48.23
21109;BME280;10712;52.944;9.098;2023-06-22T07:10:19;101819.47;;;28.84;48.16
21109;BME280;10712;52.944;9.098;2023-06-22T07:12:44;101812.56;;;28.96;47.59
21109;BME280;10712;52.944;9.098;2023-06-22T07:15:11;101813.53;;;29.04;47.51
21109;BME280;10712;52.944;9.098;2023-06-22T07:17:39;101809.00;;;29.11;47.38
21109;BME280;10712;52.944;9.098;2023-06-22T07:20:07;101809.75;;;29.19;46.94
21109;BME280;10712;52.944;9.098;2023-06-22T07:22:37;101809.22;;;29.24;46.89
21109;BME280;10712;52.944;9.098;2023-06-22T07:25:03;101800.91;;;29.32;46.61
21109;BME280;10712;52.944;9.098;2023-06-22T07:27:39;101799.84;;;29.33;46.08
21109;BME280;10712;52.944;9.098;2023-06-22T07:30:09;101794.13;;;29.43;45.72
21109;BME280;10712;52.944;9.098;2023-06-22T07:32:35;101793.22;;;29.50;45.62
21109;BME280;10712;52.944;9.098;2023-06-22T07:35:02;101799.25;;;29.60;45.81
21109;BME280;10712;52.944;9.098;2023-06-22T07:37:28;101796.06;;;29.71;45.62
21109;BME280;10712;52.944;9.098;2023-06-22T07:39:55;101795.75;;;29.81;44.98
21109;BME280;10712;52.944;9.098;2023-06-22T07:42:25;101786.56;;;29.89;44.47
21109;BME280;10712;52.944;9.098;2023-06-22T07:44:51;101794.75;;;29.97;44.36
21109;BME280;10712;52.944;9.098;2023-06-22T07:47:17;101791.63;;;30.00;43.74
21109;BME280;10712;52.944;9.098;2023-06-22T07:49:46;101797.41;;;30.05;43.85
21109;BME280;10712;52.944;9.098;2023-06-22T07:52:12;101793.69;;;30.12;43.68
21109;BME280;10712;52.944;9.098;2023-06-22T07:54:38;101791.69;;;30.21;44.12
21109;BME280;10712;52.944;9.098;2023-06-22T07:57:04;101784.56;;;30.27;43.48
21109;BME280;10712;52.944;9.098;2023-06-22T07:59:30;101788.44;;;30.32;43.28
21109;BME280;10712;52.944;9.098;2023-06-22T08:01:56;101781.78;;;30.41;42.92
21109;BME280;10712;52.944;9.098;2023-06-22T08:04:22;101768.97;;;30.48;42.77
21109;BME280;10712;52.944;9.098;2023-06-22T08:06:48;101773.72;;;30.55;42.71
21109;BME280;10712;52.944;9.098;2023-06-22T08:09:15;101773.97;;;30.60;42.81
21109;BME280;10712;52.944;9.098;2023-06-22T08:11:40;101766.03;;;30.71;41.89
21109;BME280;10712;52.944;9.098;2023-06-22T08:14:06;101764.41;;;30.77;41.63
21109;BME280;10712;52.944;9.098;2023-06-22T08:16:32;101771.22;;;30.81;41.76
21109;BME280;10712;52.944;9.098;2023-06-22T08:18:58;101759.88;;;30.90;41.26
21109;BME280;10712;52.944;9.098;2023-06-22T08:21:23;101761.63;;;30.98;41.35
21109;BME280;10712;52.944;9.098;2023-06-22T08:23:49;101761.50;;;31.06;40.75
21109;BME280;10712;52.944;9.098;2023-06-22T08:26:15;101761.38;;;31.14;40.20
21109;BME280;10712;52.944;9.098;2023-06-22T08:28:41;101772.00;;;31.17;40.65
21109;BME280;10712;52.944;9.098;2023-06-22T08:31:07;101763.59;;;31.25;40.44
21109;BME280;10712;52.944;9.098;2023-06-22T08:33:33;101774.00;;;31.30;40.19
21109;BME280;10712;52.944;9.098;2023-06-22T08:35:59;101765.78;;;31.37;40.89
21109;BME280;10712;52.944;9.098;2023-06-22T08:38:26;101766.69;;;31.44;40.68
21109;BME280;10712;52.944;9.098;2023-06-22T08:40:51;101758.69;;;31.55;41.02
21109;BME280;10712;52.944;9.098;2023-06-22T08:43:17;101753.72;;;31.65;39.67
21109;BME280;10712;52.944;9.098;2023-06-22T08:45:43;101759.66;;;31.69;39.58
21109;BME280;10712;52.944;9.098;2023-06-22T08:48:08;101755.03;;;31.76;39.78
21109;BME280;10712;52.944;9.098;2023-06-22T08:50:34;101742.78;;;31.85;39.60
21109;BME280;10712;52.944;9.098;2023-06-22T08:53:00;101751.91;;;31.86;39.76
21109;BME280;10712;52.944;9.098;2023-06-22T08:55:26;101749.34;;;31.84;40.39
21109;BME280;10712;52.944;9.098;2023-06-22T08:57:51;101746.59;;;31.84;39.78
21109;BME280;10712;52.944;9.098;2023-06-22T09:00:18;101741.47;;;31.81;40.19
21109;BME280;10712;52.944;9.098;2023-06-22T09:02:47;101742.78;;;31.85;40.16
21109;BME280;10712;52.944;9.098;2023-06-22T09:05:15;101737.13;;;31.93;40.23
21109;BME280;10712;52.944;9.098;2023-06-22T09:07:41;101739.91;;;32.06;40.37
21109;BME280;10712;52.944;9.098;2023-06-22T09:10:08;101721.50;;;32.14;39.97
21109;BME280;10712;52.944;9.098;2023-06-22T09:12:34;101721.56;;;32.27;39.73
21109;BME280;10712;52.944;9.098;2023-06-22T09:15:01;101724.75;;;32.37;39.81
21109;BME280;10712;52.944;9.098;2023-06-22T09:17:27;101727.75;;;32.49;40.20
21109;BME280;10712;52.944;9.098;2023-06-22T09:19:52;101721.81;;;32.58;39.93
21109;BME280;10712;52.944;9.098;2023-06-22T09:22:18;101721.81;;;32.65;39.48
21109;BME280;10712;52.944;9.098;2023-06-22T09:24:44;101715.06;;;32.67;39.50
21109;BME280;10712;52.944;9.098;2023-06-22T09:27:10;101710.63;;;32.79;39.33
21109;BME280;10712;52.944;9.098;2023-06-22T09:29:35;101715.06;;;32.87;38.67
21109;BME280;10712;52.944;9.098;2023-06-22T09:32:01;101714.22;;;32.87;38.57
21109;BME280;10712;52.944;9.098;2023-06-22T09:34:27;101708.69;;;32.87;38.75
21109;BME280;10712;52.944;9.098;2023-06-22T09:36:53;101711.47;;;32.87;39.15
21109;BME280;10712;52.944;9.098;2023-06-22T09:39:19;101705.09;;;32.86;38.81
21109;BME280;10712;52.944;9.098;2023-06-22T09:41:45;101704.03;;;32.80;38.57
21109;BME280;10712;52.944;9.098;2023-06-22T09:44:11;101699.38;;;32.81;39.32
21109;BME280;10712;52.944;9.098;2023-06-22T09:46:36;101696.41;;;32.82;39.40
21109;BME280;10712;52.944;9.098;2023-06-22T09:49:02;101694.50;;;32.90;39.50
21109;BME280;10712;52.944;9.098;2023-06-22T09:51:28;101693.00;;;32.87;39.40
21109;BME280;10712;52.944;9.098;2023-06-22T09:53:53;101683.66;;;32.88;39.63
21109;BME280;10712;52.944;9.098;2023-06-22T09:56:20;101689.81;;;32.83;38.81
21109;BME280;10712;52.944;9.098;2023-06-22T09:58:46;101685.34;;;32.82;39.18
21109;BME280;10712;52.944;9.098;2023-06-22T10:01:13;101680.69;;;32.90;39.03
21109;BME280;10712;52.944;9.098;2023-06-22T10:03:42;101683.22;;;32.98;39.27
21109;BME280;10712;52.944;9.098;2023-06-22T10:06:08;101673.44;;;33.02;38.77
21109;BME280;10712;52.944;9.098;2023-06-22T10:08:37;101666.66;;;32.98;38.68
21109;BME280;10712;52.944;9.098;2023-06-22T10:11:03;101663.66;;;33.06;38.73
21109;BME280;10712;52.944;9.098;2023-06-22T10:13:29;101665.34;;;33.13;39.18
21109;BME280;10712;52.944;9.098;2023-06-22T10:15:55;101650.06;;;33.11;38.86
21109;BME280;10712;52.944;9.098;2023-06-22T10:18:21;101647.09;;;33.19;38.41
21109;BME280;10712;52.944;9.098;2023-06-22T10:20:49;101653.47;;;33.26;38.80
21109;BME280;10712;52.944;9.098;2023-06-22T10:23:18;101643.66;;;33.30;38.92
21109;BME280;10712;52.944;9.098;2023-06-22T10:25:45;101645.13;;;33.39;39.34
21109;BME280;10712;52.944;9.098;2023-06-22T10:28:12;101639.78;;;33.44;39.53
21109;BME280;10712;52.944;9.098;2023-06-22T10:30:39;101638.53;;;33.40;38.74
21109;BME280;10712;52.944;9.098;2023-06-22T10:33:08;101635.16;;;33.38;38.40
21109;BME280;10712;52.944;9.098;2023-06-22T10:35:34;101634.69;;;33.41;38.56
21109;BME280;10712;52.944;9.098;2023-06-22T10:38:00;101631.94;;;33.41;38.24
21109;BME280;10712;52.944;9.098;2023-06-22T10:40:26;101637.25;;;33.43;38.17
21109;BME280;10712;52.944;9.098;2023-06-22T10:42:51;101635.13;;;33.45;38.15
21109;BME280;10712;52.944;9.098;2023-06-22T10:45:17;101633.44;;;33.37;37.30
21109;BME280;10712;52.944;9.098;2023-06-22T10:47:43;101639.41;;;33.34;37.58
21109;BME280;10712;52.944;9.098;2023-06-22T10:50:10;101633.69;;;33.29;38.25
21109;BME280;10712;52.944;9.098;2023-06-22T10:52:36;101634.31;;;33.31;38.52
21109;BME280;10712;52.944;9.098;2023-06-22T10:55:02;101625.41;;;33.29;38.71
21109;BME280;10712;52.944;9.098;2023-06-22T10:57:28;101629.88;;;33.17;38.50
21109;BME280;10712;52.944;9.098;2023-06-22T10:59:53;101639.88;;;33.25;38.19
21109;BME280;10712;52.944;9.098;2023-06-22T11:02:19;101633.03;;;33.27;37.97
21109;BME280;10712;52.944;9.098;2023-06-22T11:04:45;101637.72;;;33.27;38.23
21109;BME280;10712;52.944;9.098;2023-06-22T11:07:11;101643.25;;;33.27;38.76
21109;BME280;10712;52.944;9.098;2023-06-22T11:09:37;101640.72;;;33.25;38.78
21109;BME280;10712;52.944;9.098;2023-06-22T11:12:04;101640.72;;;33.25;39.33
21109;BME280;10712;52.944;9.098;2023-06-22T11:14:30;101630.31;;;33.20;39.47
21109;BME280;10712;52.944;9.098;2023-06-22T11:16:56;101629.88;;;33.17;39.92
21109;BME280;10712;52.944;9.098;2023-06-22T11:19:21;101623.50;;;33.10;39.99
21109;BME280;10712;52.944;9.098;2023-06-22T11:21:47;101622.03;;;33.07;39.86
21109;BME280;10712;52.944;9.098;2023-06-22T11:24:13;101617.78;;;33.11;39.60
21109;BME280;10712;52.944;9.098;2023-06-22T11:26:39;101607.16;;;33.08;39.00
21109;BME280;10712;52.944;9.098;2023-06-22T11:29:04;101601.22;;;33.05;38.81
21109;BME280;10712;52.944;9.098;2023-06-22T11:31:32;101605.44;;;33.07;39.26
21109;BME280;10712;52.944;9.098;2023-06-22T11:33:58;101605.25;;;33.09;38.39
21109;BME280;10712;52.944;9.098;2023-06-22T11:36:25;101610.75;;;33.15;38.83
21109;BME280;10712;52.944;9.098;2023-06-22T11:38:51;101599.50;;;33.23;38.99
21109;BME280;10712;52.944;9.098;2023-06-22T11:41:17;101593.75;;;33.25;38.85
21109;BME280;10712;52.944;9.098;2023-06-22T11:43:44;101596.06;;;33.28;38.89
21109;BME280;10712;52.944;9.098;2023-06-22T11:46:10;101590.53;;;33.28;38.78
21109;BME280;10712;52.944;9.098;2023-06-22T11:48:36;101588.63;;;33.29;38.52
21109;BME280;10712;52.944;9.098;2023-06-22T11:51:02;101582.91;;;33.30;38.71
21109;BME280;10712;52.944;9.098;2023-06-22T11:53:29;101575.25;;;33.32;38.72
21109;BME280;10712;52.944;9.098;2023-06-22T11:55:55;101573.53;;;33.31;38.29
21109;BME280;10712;52.944;9.098;2023-06-22T11:58:22;101576.31;;;33.31;38.53
21109;BME280;10712;52.944;9.098;2023-06-22T12:00:48;101568.91;;;33.25;38.28
21109;BME280;10712;52.944;9.098;2023-06-22T12:03:14;101572.94;;;33.22;38.36
21109;BME280;10712;52.944;9.098;2023-06-22T12:05:42;101569.50;;;33.27;37.98
21109;BME280;10712;52.944;9.098;2023-06-22T12:08:08;101568.91;;;33.25;38.28
21109;BME280;10712;52.944;9.098;2023-06-22T12:10:34;101570.59;;;33.26;37.80
21109;BME280;10712;52.944;9.098;2023-06-22T12:13:00;101564.44;;;33.24;37.93
21109;BME280;10712;52.944;9.098;2023-06-22T12:15:26;101559.56;;;33.26;37.95
21109;BME280;10712;52.944;9.098;2023-06-22T12:17:52;101558.69;;;33.26;38.26
21109;BME280;10712;52.944;9.098;2023-06-22T12:20:18;101552.69;;;33.35;38.96
21109;BME280;10712;52.944;9.098;2023-06-22T12:22:45;101551.81;;;33.41;39.35
21109;BME280;10712;52.944;9.098;2023-06-22T12:25:11;101553.09;;;33.45;39.53
21109;BME280;10712;52.944;9.098;2023-06-22T12:27:37;101547.97;;;33.42;39.19
21109;BME280;10712;52.944;9.098;2023-06-22T12:30:04;101544.41;;;33.35;38.96
21109;BME280;10712;52.944;9.098;2023-06-22T12:32:30;101537.44;;;33.33;38.52
21109;BME280;10712;52.944;9.098;2023-06-22T12:34:57;101533.56;;;33.34;38.71
21109;BME280;10712;52.944;9.098;2023-06-22T12:37:23;101534.41;;;33.34;39.89
21109;BME280;10712;52.944;9.098;2023-06-22T12:39:49;101530.16;;;33.38;40.20
21109;BME280;10712;52.944;9.098;2023-06-22T12:42:16;101534.63;;;33.39;39.89
21109;BME280;10712;52.944;9.098;2023-06-22T12:44:42;101532.28;;;33.36;39.44
21109;BME280;10712;52.944;9.098;2023-06-22T12:47:09;101528.47;;;33.37;39.48
21109;BME280;10712;52.944;9.098;2023-06-22T12:49:37;101526.41;;;33.26;38.53
21109;BME280;10712;52.944;9.098;2023-06-22T12:52:08;101508.13;;;33.25;38.74